createdAt,value
2023-02-16T00:01:30.603Z,4.25
2023-02-16T00:03:33.057Z,4.17
2023-02-16T00:05:35.469Z,4.18
2023-02-16T00:07:37.581Z,4.15
2023-02-16T00:09:39.715Z,4.18
2023-02-16T00:12:00.832Z,4.16
2023-02-16T00:14:05.027Z,4.09
2023-02-16T00:16:13.914Z,3.95
2023-02-16T00:18:21.737Z,3.97
2023-02-16T00:20:23.908Z,4.06
2023-02-16T00:22:26.016Z,4.01
2023-02-16T00:24:30.278Z,4.01
2023-02-16T00:26:34.435Z,3.97
2023-02-16T00:28:39.286Z,4.00
2023-02-16T00:30:41.894Z,3.99
2023-02-16T00:32:44.467Z,3.93
2023-02-16T00:34:46.464Z,3.96
2023-02-16T00:36:48.355Z,3.98
2023-02-16T00:38:50.663Z,4.03
2023-02-16T00:40:53.176Z,4.00
2023-02-16T00:42:57.293Z,3.98
2023-02-16T00:44:59.988Z,3.98
2023-02-16T00:47:21.676Z,3.93
2023-02-16T00:49:23.878Z,3.98
2023-02-16T00:51:26.673Z,3.91
2023-02-16T00:53:30.496Z,3.89
2023-02-16T00:55:35.534Z,3.89
2023-02-16T00:57:51.863Z,3.86
2023-02-16T01:00:15.026Z,3.84
2023-02-16T01:02:17.086Z,3.90
2023-02-16T01:04:23.929Z,3.88
2023-02-16T01:06:44.600Z,3.92
2023-02-16T01:09:05.587Z,3.91
2023-02-16T01:11:10.418Z,3.86
2023-02-16T01:13:15.886Z,3.86
2023-02-16T01:15:22.407Z,3.91
2023-02-16T01:17:25.474Z,4.00
2023-02-16T01:19:30.174Z,4.01
2023-02-16T01:21:32.544Z,3.98
2023-02-16T01:23:38.089Z,4.04
2023-02-16T01:25:40.849Z,3.92
2023-02-16T01:27:46.487Z,3.91
2023-02-16T01:29:48.583Z,4.00
2023-02-16T01:31:51.259Z,4.02
2023-02-16T01:33:53.740Z,4.01
2023-02-16T01:35:57.345Z,4.04
2023-02-16T01:37:59.552Z,3.99
2023-02-16T01:40:01.705Z,4.02
2023-02-16T01:42:38.491Z,3.96
2023-02-16T01:45:03.821Z,3.88
2023-02-16T01:47:13.609Z,3.91
2023-02-16T01:49:18.113Z,3.97
2023-02-16T01:51:27.626Z,3.93
2023-02-16T01:53:42.159Z,3.87
2023-02-16T01:55:47.232Z,3.87
2023-02-16T01:58:01.246Z,3.89
2023-02-16T02:00:52.612Z,3.83
2023-02-16T02:03:20.613Z,3.81
2023-02-16T02:05:36.070Z,3.82
2023-02-16T02:07:53.420Z,3.81
2023-02-16T02:10:17.701Z,3.79
2023-02-16T02:12:43.312Z,3.79
2023-02-16T02:14:45.739Z,3.70
2023-02-16T02:17:01.156Z,3.66
2023-02-16T02:19:05.993Z,3.73
2023-02-16T02:21:58.074Z,3.58
2023-02-16T02:24:18.168Z,3.48
2023-02-16T02:26:49.270Z,3.44
2023-02-16T02:29:24.896Z,3.33
2023-02-16T02:31:33.329Z,3.39
2023-02-16T02:34:06.352Z,3.38
2023-02-16T02:36:30.358Z,3.32
2023-02-16T02:39:12.702Z,3.29
2023-02-16T02:41:54.208Z,3.28
2023-02-16T02:44:06.740Z,3.22
2023-02-16T02:46:29.985Z,3.35
2023-02-16T02:48:36.258Z,3.35
2023-02-16T02:51:06.539Z,3.24
2023-02-16T02:53:14.430Z,3.15
2023-02-16T02:55:36.066Z,3.24
2023-02-16T02:58:02.024Z,3.17
2023-02-16T03:00:34.376Z,3.17
2023-02-16T03:02:40.672Z,3.25
2023-02-16T03:04:47.430Z,3.24
2023-02-16T03:06:52.872Z,3.31
2023-02-16T03:09:14.287Z,3.33
2023-02-16T03:11:41.574Z,3.34
2023-02-16T03:13:48.050Z,3.35
2023-02-16T03:15:56.043Z,3.36
2023-02-16T03:18:22.126Z,3.38
2023-02-16T03:20:43.129Z,3.39
2023-02-16T03:23:04.422Z,3.33
2023-02-16T03:25:25.754Z,3.30
2023-02-16T03:27:52.982Z,3.30
2023-02-16T03:29:57.198Z,3.32
2023-02-16T03:31:59.702Z,3.31
2023-02-16T03:34:02.866Z,3.33
2023-02-16T03:36:05.769Z,3.27
2023-02-16T03:38:08.480Z,3.31
2023-02-16T03:40:29.666Z,3.28
2023-02-16T03:42:31.862Z,3.27
2023-02-16T03:44:34.622Z,3.27
2023-02-16T03:46:36.662Z,3.26
2023-02-16T03:48:38.799Z,3.36
2023-02-16T03:50:40.906Z,3.38
2023-02-16T03:52:43.203Z,3.37
2023-02-16T03:54:47.179Z,3.29
2023-02-16T03:56:49.363Z,3.22
2023-02-16T03:58:51.396Z,3.17
2023-02-16T04:00:54.694Z,3.21
2023-02-16T04:02:56.932Z,3.17
2023-02-16T04:04:59.076Z,3.14
2023-02-16T04:07:01.206Z,3.16
2023-02-16T04:09:03.852Z,3.11
2023-02-16T04:11:24.452Z,3.02
2023-02-16T04:13:27.405Z,2.98
2023-02-16T04:15:31.043Z,2.97
2023-02-16T04:17:33.158Z,2.92
2023-02-16T04:19:35.366Z,2.92
2023-02-16T04:21:37.355Z,2.91
2023-02-16T04:23:39.603Z,2.84
2023-02-16T04:25:41.770Z,2.84
2023-02-16T04:27:44.178Z,2.78
2023-02-16T04:29:46.526Z,2.78
2023-02-16T04:31:50.107Z,2.79
2023-02-16T04:33:52.326Z,2.79
2023-02-16T04:35:54.822Z,2.77
2023-02-16T04:38:00.432Z,2.83
2023-02-16T04:40:03.897Z,2.83
2023-02-16T04:42:06.404Z,2.80
2023-02-16T04:44:08.505Z,2.78
2023-02-16T04:46:10.605Z,2.70
2023-02-16T04:48:12.809Z,2.72
2023-02-16T04:50:15.369Z,2.79
2023-02-16T04:52:17.682Z,2.75
2023-02-16T04:54:19.749Z,2.77
2023-02-16T04:56:21.779Z,2.77
2023-02-16T04:58:23.956Z,2.67
2023-02-16T05:00:26.250Z,2.79
2023-02-16T05:02:28.434Z,2.74
2023-02-16T05:04:31.066Z,2.77
2023-02-16T05:06:33.297Z,2.78
2023-02-16T05:08:35.597Z,2.82
2023-02-16T05:10:37.621Z,2.86
2023-02-16T05:12:58.269Z,2.92
2023-02-16T05:15:00.281Z,2.94
2023-02-16T05:17:02.180Z,3.00
2023-02-16T05:19:04.384Z,2.95
2023-02-16T05:21:25.027Z,2.97
2023-02-16T05:23:27.291Z,2.98
2023-02-16T05:25:29.272Z,3.03
2023-02-16T05:27:31.697Z,3.01
2023-02-16T05:29:34.453Z,3.02
2023-02-16T05:31:36.726Z,2.96
2023-02-16T05:33:38.661Z,2.98
2023-02-16T05:35:40.775Z,2.91
2023-02-16T05:37:42.910Z,2.97
2023-02-16T05:39:45.496Z,2.98
2023-02-16T05:41:47.728Z,2.97
2023-02-16T05:43:55.171Z,2.97
2023-02-16T05:45:57.187Z,2.96
2023-02-16T05:47:59.201Z,2.85
2023-02-16T05:50:01.309Z,2.80
2023-02-16T05:52:03.750Z,2.75
2023-02-16T05:54:07.116Z,2.81
2023-02-16T05:56:09.725Z,2.79
2023-02-16T05:58:11.783Z,2.77
2023-02-16T06:00:14.345Z,2.79
2023-02-16T06:02:18.184Z,2.83
2023-02-16T06:04:21.629Z,2.82
2023-02-16T06:06:23.801Z,2.81
2023-02-16T06:08:26.766Z,2.88
2023-02-16T06:10:28.867Z,2.89
2023-02-16T06:12:32.586Z,2.90
2023-02-16T06:14:34.641Z,2.86
2023-02-16T06:16:39.094Z,2.91
2023-02-16T06:18:41.999Z,2.95
2023-02-16T06:20:46.501Z,2.90
2023-02-16T06:22:48.409Z,2.92
2023-02-16T06:24:50.438Z,2.93
2023-02-16T06:26:52.540Z,3.01
2023-02-16T06:28:56.121Z,3.10
2023-02-16T06:30:58.455Z,3.16
2023-02-16T06:33:00.696Z,3.14
2023-02-16T06:35:04.532Z,3.30
2023-02-16T06:37:06.757Z,3.27
2023-02-16T06:39:08.881Z,3.37
2023-02-16T06:41:11.480Z,3.53
2023-02-16T06:43:13.523Z,3.58
2023-02-16T06:45:16.073Z,3.66
2023-02-16T06:47:18.097Z,3.71
2023-02-16T06:49:21.343Z,3.77
2023-02-16T06:51:23.686Z,3.79
2023-02-16T06:53:26.165Z,3.85
2023-02-16T06:55:28.734Z,3.89
2023-02-16T06:57:30.771Z,3.89
2023-02-16T06:59:32.736Z,3.98
2023-02-16T07:01:35.687Z,4.01
2023-02-16T07:03:37.894Z,4.09
2023-02-16T07:05:44.255Z,4.12
2023-02-16T07:07:46.548Z,4.17
2023-02-16T07:09:48.606Z,4.20
2023-02-16T07:11:50.763Z,4.16
2023-02-16T07:13:53.082Z,4.22
2023-02-16T07:15:55.661Z,4.32
2023-02-16T07:17:57.740Z,4.35
2023-02-16T07:20:02.457Z,4.43
2023-02-16T07:22:05.781Z,4.55
2023-02-16T07:24:08.053Z,4.66
2023-02-16T07:26:10.072Z,4.76
2023-02-16T07:28:12.048Z,4.84
2023-02-16T07:30:16.663Z,4.91
2023-02-16T07:32:18.979Z,5.01
2023-02-16T07:34:22.157Z,5.05
2023-02-16T07:36:24.184Z,5.15
2023-02-16T07:38:26.675Z,5.21
2023-02-16T07:40:28.981Z,5.27
2023-02-16T07:42:36.038Z,5.31
2023-02-16T07:44:38.424Z,5.39
2023-02-16T07:46:40.585Z,5.56
2023-02-16T07:48:42.719Z,5.64
2023-02-16T07:50:44.995Z,5.79
2023-02-16T07:52:47.215Z,5.91
2023-02-16T07:54:49.432Z,5.92
2023-02-16T07:56:51.601Z,6.01
2023-02-16T07:58:55.059Z,6.01
2023-02-16T08:01:06.649Z,6.10
2023-02-16T08:03:09.739Z,6.25
2023-02-16T08:05:11.840Z,6.25
2023-02-16T08:07:17.685Z,6.36
2023-02-16T08:09:19.699Z,6.43
2023-02-16T08:11:27.662Z,6.51
2023-02-16T08:13:29.742Z,6.57
2023-02-16T08:15:31.748Z,6.65
2023-02-16T08:17:34.987Z,6.69
2023-02-16T08:19:37.727Z,6.66
2023-02-16T08:21:40.015Z,6.76
2023-02-16T08:23:49.759Z,6.81
2023-02-16T08:25:51.981Z,6.90
2023-02-16T08:27:54.328Z,6.97
2023-02-16T08:29:56.819Z,6.99
2023-02-16T08:32:00.089Z,7.05
2023-02-16T08:34:03.530Z,7.10
2023-02-16T08:36:16.621Z,7.08
2023-02-16T08:38:18.942Z,7.17
2023-02-16T08:40:25.149Z,7.34
2023-02-16T08:42:27.583Z,7.45
2023-02-16T08:44:30.353Z,7.44
2023-02-16T08:46:35.471Z,7.58
2023-02-16T08:48:40.820Z,7.58
2023-02-16T08:50:55.660Z,7.67
2023-02-16T08:52:58.468Z,7.79
2023-02-16T08:55:00.598Z,7.87
2023-02-16T08:57:03.263Z,7.95
2023-02-16T08:59:05.459Z,7.96
2023-02-16T09:01:09.052Z,8.06
2023-02-16T09:03:11.119Z,8.11
2023-02-16T09:05:13.690Z,8.19
2023-02-16T09:07:16.158Z,8.24
2023-02-16T09:09:19.024Z,8.34
2023-02-16T09:11:22.139Z,8.38
2023-02-16T09:13:24.255Z,8.45
2023-02-16T09:15:26.710Z,8.43
2023-02-16T09:17:29.170Z,8.57
2023-02-16T09:19:34.614Z,8.64
2023-02-16T09:21:37.457Z,8.66
2023-02-16T09:23:42.698Z,8.80
2023-02-16T09:25:47.067Z,8.87
2023-02-16T09:27:49.744Z,8.90
2023-02-16T09:29:52.240Z,9.00
2023-02-16T09:31:55.181Z,9.05
2023-02-16T09:34:03.324Z,9.13
2023-02-16T09:36:07.527Z,9.22
2023-02-16T09:38:11.041Z,9.35
2023-02-16T09:40:14.405Z,9.49
2023-02-16T09:42:51.173Z,9.54
2023-02-16T09:45:07.726Z,9.63
2023-02-16T09:47:20.739Z,9.73
2023-02-16T09:49:32.803Z,9.70
2023-02-16T09:51:35.112Z,9.85
2023-02-16T09:53:39.909Z,9.94
2023-02-16T09:55:55.078Z,9.89
2023-02-16T09:58:27.224Z,9.91
2023-02-16T10:00:36.032Z,10.02
2023-02-16T10:02:51.454Z,10.05
2023-02-16T10:04:59.943Z,10.12
2023-02-16T10:07:32.954Z,10.22
2023-02-16T10:09:36.399Z,10.32
2023-02-16T10:11:52.071Z,10.34
2023-02-16T10:13:57.490Z,10.47
2023-02-16T10:16:03.103Z,10.55
2023-02-16T10:18:19.181Z,10.62
2023-02-16T10:20:32.884Z,10.71
2023-02-16T10:23:08.117Z,10.79
2023-02-16T10:25:19.698Z,10.84
2023-02-16T10:27:23.195Z,10.90
2023-02-16T10:29:27.426Z,11.03
2023-02-16T10:31:38.852Z,11.06
2023-02-16T10:33:47.092Z,11.10
2023-02-16T10:35:56.179Z,11.15
2023-02-16T10:38:03.410Z,11.22
2023-02-16T10:40:30.452Z,11.30
2023-02-16T10:42:53.509Z,11.35
2023-02-16T10:44:59.771Z,11.40
2023-02-16T10:47:05.660Z,11.45
2023-02-16T10:49:16.056Z,11.47
2023-02-16T10:51:19.552Z,11.60
2023-02-16T10:53:47.324Z,11.49
2023-02-16T10:55:49.856Z,11.57
2023-02-16T10:57:59.601Z,11.55
2023-02-16T11:00:07.322Z,11.66
2023-02-16T11:02:36.743Z,11.71
2023-02-16T11:04:45.201Z,11.82
2023-02-16T11:07:05.601Z,11.84
2023-02-16T11:09:15.432Z,11.88
2023-02-16T11:11:19.413Z,11.88
2023-02-16T11:13:31.849Z,11.92
2023-02-16T11:15:37.751Z,12.01
2023-02-16T11:18:01.350Z,12.02
2023-02-16T11:20:07.469Z,12.06
2023-02-16T11:22:26.886Z,12.08
2023-02-16T11:24:33.623Z,12.16
2023-02-16T11:26:35.701Z,12.12
2023-02-16T11:28:45.418Z,12.16
2023-02-16T11:30:48.079Z,12.14
2023-02-16T11:32:51.907Z,12.23
2023-02-16T11:34:54.265Z,12.28
2023-02-16T11:37:31.202Z,12.35
2023-02-16T11:39:37.956Z,12.45
2023-02-16T11:41:53.554Z,12.51
2023-02-16T11:43:56.936Z,12.60
2023-02-16T11:46:16.837Z,12.58
2023-02-16T11:48:28.772Z,12.59
2023-02-16T11:50:32.948Z,12.64
2023-02-16T11:52:34.997Z,12.69
2023-02-16T11:54:37.399Z,12.71
2023-02-16T11:56:41.129Z,12.71
2023-02-16T11:58:43.143Z,12.71
2023-02-16T12:00:51.266Z,12.74
2023-02-16T12:03:01.931Z,12.79
2023-02-16T12:05:22.621Z,12.75
2023-02-16T12:07:47.121Z,12.64
2023-02-16T12:10:08.010Z,12.59
2023-02-16T12:12:31.208Z,12.56
2023-02-16T12:14:51.532Z,12.62
2023-02-16T12:17:05.788Z,12.66
2023-02-16T12:19:28.451Z,12.71
2023-02-16T12:21:39.910Z,12.73
2023-02-16T12:23:44.137Z,12.74
2023-02-16T12:26:11.935Z,12.71
2023-02-16T12:28:26.017Z,12.75
2023-02-16T12:30:28.512Z,12.82
2023-02-16T12:32:49.412Z,12.81
2023-02-16T12:35:07.406Z,12.79
2023-02-16T12:37:27.061Z,12.81
2023-02-16T12:39:39.631Z,12.85
2023-02-16T12:41:47.579Z,12.95
2023-02-16T12:43:57.561Z,12.93
2023-02-16T12:46:05.538Z,12.99
2023-02-16T12:48:28.736Z,13.02
2023-02-16T12:50:34.585Z,13.06
2023-02-16T12:52:47.687Z,13.02
2023-02-16T12:54:55.641Z,13.08
2023-02-16T12:57:06.053Z,13.15
2023-02-16T12:59:16.852Z,13.16
2023-02-16T13:01:25.652Z,13.15
2023-02-16T13:03:44.789Z,13.18
2023-02-16T13:05:54.596Z,13.13
2023-02-16T13:08:30.271Z,13.15
2023-02-16T13:10:53.892Z,13.13
2023-02-16T13:13:02.851Z,13.11
2023-02-16T13:15:35.987Z,13.12
2023-02-16T13:17:53.388Z,13.12
2023-02-16T13:19:55.847Z,13.20
2023-02-16T13:22:19.546Z,13.16
2023-02-16T13:25:03.832Z,13.07
2023-02-16T13:27:08.019Z,13.15
2023-02-16T13:29:49.030Z,13.15
2023-02-16T13:32:21.268Z,13.15
2023-02-16T13:35:17.371Z,13.12
2023-02-16T13:37:50.952Z,13.11
2023-02-16T13:40:20.109Z,13.04
2023-02-16T13:42:59.782Z,12.98
2023-02-16T13:45:05.998Z,13.01
2023-02-16T13:47:15.724Z,12.98
2023-02-16T13:49:43.134Z,12.94
2023-02-16T13:51:47.306Z,12.96
2023-02-16T13:54:04.367Z,12.86
2023-02-16T13:56:31.102Z,12.75
2023-02-16T13:58:33.260Z,12.82
2023-02-16T14:00:42.396Z,12.78
2023-02-16T14:02:57.542Z,12.70
2023-02-16T14:05:02.850Z,12.73
2023-02-16T14:07:07.756Z,12.74
2023-02-16T14:09:12.845Z,12.67
2023-02-16T14:11:14.908Z,12.71
2023-02-16T14:13:17.733Z,12.65
2023-02-16T14:15:21.229Z,12.64
2023-02-16T14:17:35.187Z,12.47
2023-02-16T14:19:37.345Z,12.52
2023-02-16T14:21:45.143Z,12.50
2023-02-16T14:23:56.327Z,12.56
2023-02-16T14:26:06.731Z,12.50
2023-02-16T14:28:21.624Z,12.46
2023-02-16T14:30:35.741Z,12.40
2023-02-16T14:32:39.047Z,12.42
2023-02-16T14:34:49.441Z,12.35
2023-02-16T14:37:21.572Z,12.25
2023-02-16T14:39:24.862Z,12.28
2023-02-16T14:41:33.306Z,12.23
2023-02-16T14:43:35.499Z,12.21
2023-02-16T14:45:46.020Z,12.20
2023-02-16T14:47:56.856Z,12.15
2023-02-16T14:50:17.010Z,12.15
2023-02-16T14:52:25.333Z,12.17
2023-02-16T14:54:37.572Z,12.12
2023-02-16T14:56:45.813Z,12.04
2023-02-16T14:59:02.148Z,11.93
2023-02-16T15:01:17.939Z,11.83
2023-02-16T15:03:23.658Z,11.90
2023-02-16T15:05:33.037Z,11.83
2023-02-16T15:07:35.587Z,11.86
2023-02-16T15:09:42.447Z,11.80
2023-02-16T15:12:21.954Z,11.76
2023-02-16T15:14:27.346Z,11.77
2023-02-16T15:16:32.090Z,11.74
2023-02-16T15:18:40.610Z,11.66
2023-02-16T15:20:45.869Z,11.68
2023-02-16T15:22:58.152Z,11.60
2023-02-16T15:25:21.327Z,11.55
2023-02-16T15:27:24.268Z,11.53
2023-02-16T15:29:29.636Z,11.48
2023-02-16T15:31:38.782Z,11.44
2023-02-16T15:33:54.778Z,11.48
2023-02-16T15:36:00.002Z,11.41
2023-02-16T15:38:19.388Z,11.39
2023-02-16T15:40:27.138Z,11.34
2023-02-16T15:42:31.912Z,11.37
2023-02-16T15:44:36.599Z,11.27
2023-02-16T15:46:43.815Z,11.30
2023-02-16T15:48:46.026Z,11.26
2023-02-16T15:50:49.211Z,11.22
2023-02-16T15:52:51.326Z,11.18
2023-02-16T15:54:54.064Z,11.12
2023-02-16T15:56:58.430Z,11.06
2023-02-16T15:59:03.382Z,11.02
2023-02-16T16:01:05.618Z,11.00
2023-02-16T16:03:12.666Z,10.94
2023-02-16T16:05:26.791Z,10.86
2023-02-16T16:07:35.775Z,10.84
2023-02-16T16:09:40.173Z,10.81
2023-02-16T16:11:43.078Z,10.79
2023-02-16T16:13:48.075Z,10.73
2023-02-16T16:15:51.974Z,10.71
2023-02-16T16:17:55.130Z,10.65
2023-02-16T16:19:58.790Z,10.61
2023-02-16T16:22:01.460Z,10.55
2023-02-16T16:24:10.064Z,10.45
2023-02-16T16:26:20.765Z,10.41
2023-02-16T16:28:28.519Z,10.33
2023-02-16T16:30:34.736Z,10.34
2023-02-16T16:32:38.454Z,10.32
2023-02-16T16:34:41.427Z,10.27
2023-02-16T16:36:57.841Z,10.16
2023-02-16T16:39:18.104Z,10.07
2023-02-16T16:41:29.405Z,9.99
2023-02-16T16:43:35.278Z,9.98
2023-02-16T16:45:41.218Z,9.94
2023-02-16T16:47:51.113Z,9.90
2023-02-16T16:50:28.324Z,9.85
2023-02-16T16:52:36.934Z,9.80
2023-02-16T16:54:40.661Z,9.79
2023-02-16T16:56:42.718Z,9.72
2023-02-16T16:58:49.372Z,9.63
2023-02-16T17:00:51.375Z,9.57
2023-02-16T17:02:53.730Z,9.53
2023-02-16T17:04:55.877Z,9.48
2023-02-16T17:06:57.889Z,9.42
2023-02-16T17:09:00.497Z,9.40
2023-02-16T17:11:04.074Z,9.33
2023-02-16T17:13:07.224Z,9.32
2023-02-16T17:15:33.232Z,9.22
2023-02-16T17:17:35.244Z,9.19
2023-02-16T17:19:37.268Z,9.14
2023-02-16T17:21:39.418Z,9.11
2023-02-16T17:23:50.421Z,9.03
2023-02-16T17:25:54.999Z,8.93
2023-02-16T17:27:57.632Z,8.89
2023-02-16T17:29:59.732Z,8.84
2023-02-16T17:32:02.016Z,8.82
2023-02-16T17:34:04.686Z,8.79
2023-02-16T17:36:10.965Z,8.75
2023-02-16T17:38:19.059Z,8.65
2023-02-16T17:40:23.515Z,8.66
2023-02-16T17:42:27.966Z,8.64
2023-02-16T17:44:30.792Z,8.61
2023-02-16T17:46:35.981Z,8.59
2023-02-16T17:48:41.175Z,8.55
2023-02-16T17:50:43.274Z,8.52
2023-02-16T17:52:45.457Z,8.47
2023-02-16T17:54:47.502Z,8.43
2023-02-16T17:56:49.470Z,8.41
2023-02-16T17:58:52.040Z,8.37
2023-02-16T18:00:54.234Z,8.32
2023-02-16T18:02:56.394Z,8.28
2023-02-16T18:04:58.568Z,8.22
2023-02-16T18:07:03.286Z,8.18
2023-02-16T18:09:05.274Z,8.17
2023-02-16T18:11:07.713Z,8.03
2023-02-16T18:13:11.747Z,8.00
2023-02-16T18:15:13.861Z,8.00
2023-02-16T18:17:15.933Z,8.00
2023-02-16T18:19:19.605Z,7.96
2023-02-16T18:21:21.899Z,7.92
2023-02-16T18:23:24.226Z,7.90
2023-02-16T18:25:29.008Z,7.88
2023-02-16T18:27:31.491Z,7.85
2023-02-16T18:29:33.736Z,7.81
2023-02-16T18:31:36.159Z,7.81
2023-02-16T18:33:38.222Z,7.76
2023-02-16T18:35:40.241Z,7.75
2023-02-16T18:37:42.724Z,7.71
2023-02-16T18:39:45.051Z,7.69
2023-02-16T18:41:47.149Z,7.62
2023-02-16T18:43:49.243Z,7.62
2023-02-16T18:45:52.571Z,7.63
2023-02-16T18:47:54.979Z,7.60
2023-02-16T18:49:57.333Z,7.51
2023-02-16T18:51:59.514Z,7.47
2023-02-16T18:54:01.838Z,7.43
2023-02-16T18:56:09.217Z,7.38
2023-02-16T18:58:13.686Z,7.37
2023-02-16T19:00:17.104Z,7.35
2023-02-16T19:02:22.111Z,7.31
2023-02-16T19:04:25.739Z,7.29
2023-02-16T19:06:28.071Z,7.30
2023-02-16T19:08:30.182Z,7.29
2023-02-16T19:10:33.535Z,7.27
2023-02-16T19:12:39.310Z,7.20
2023-02-16T19:14:41.702Z,7.22
2023-02-16T19:16:43.837Z,7.19
2023-02-16T19:18:46.293Z,7.13
2023-02-16T19:20:48.356Z,7.10
2023-02-16T19:22:50.905Z,7.09
2023-02-16T19:24:53.049Z,7.09
2023-02-16T19:26:55.087Z,7.09
2023-02-16T19:28:57.063Z,6.96
2023-02-16T19:31:03.716Z,6.78
2023-02-16T19:33:05.932Z,6.82
2023-02-16T19:35:09.873Z,6.79
2023-02-16T19:37:12.255Z,6.84
2023-02-16T19:39:17.062Z,6.74
2023-02-16T19:41:32.361Z,6.67
2023-02-16T19:43:37.770Z,6.70
2023-02-16T19:45:41.454Z,6.76
2023-02-16T19:47:43.484Z,6.74
2023-02-16T19:49:45.971Z,6.76
2023-02-16T19:51:48.606Z,6.80
2023-02-16T19:53:54.802Z,6.80
2023-02-16T19:55:57.146Z,6.79
2023-02-16T19:57:59.197Z,6.67
2023-02-16T20:00:03.384Z,6.61
2023-02-16T20:02:15.631Z,6.52
2023-02-16T20:04:18.377Z,6.52
2023-02-16T20:06:32.884Z,6.46
2023-02-16T20:08:36.709Z,6.52
2023-02-16T20:10:44.171Z,6.53
2023-02-16T20:12:46.616Z,6.58
2023-02-16T20:14:48.781Z,6.61
2023-02-16T20:16:52.015Z,6.60
2023-02-16T20:18:55.667Z,6.65
2023-02-16T20:21:09.994Z,6.60
2023-02-16T20:23:12.435Z,6.68
2023-02-16T20:25:14.772Z,6.67
2023-02-16T20:27:16.985Z,6.67
2023-02-16T20:29:21.082Z,6.66
2023-02-16T20:31:40.470Z,6.61
2023-02-16T20:33:43.199Z,6.64
2023-02-16T20:35:46.262Z,6.66
2023-02-16T20:37:48.367Z,6.63
2023-02-16T20:39:50.909Z,6.58
2023-02-16T20:41:54.892Z,6.60
2023-02-16T20:43:57.118Z,6.57
2023-02-16T20:46:03.429Z,6.55
2023-02-16T20:48:06.022Z,6.54
2023-02-16T20:50:12.960Z,6.53
2023-02-16T20:52:15.114Z,6.48
2023-02-16T20:54:17.303Z,6.47
2023-02-16T20:56:22.861Z,6.43
2023-02-16T20:58:25.022Z,6.39
2023-02-16T21:00:28.008Z,6.39
2023-02-16T21:02:30.189Z,6.37
2023-02-16T21:04:33.542Z,6.35
2023-02-16T21:06:37.167Z,6.30
2023-02-16T21:08:39.629Z,6.25
2023-02-16T21:10:42.384Z,6.25
2023-02-16T21:12:44.976Z,6.21
2023-02-16T21:14:46.940Z,6.19
2023-02-16T21:16:49.091Z,6.13
2023-02-16T21:18:51.220Z,6.24
2023-02-16T21:20:53.606Z,6.20
2023-02-16T21:22:55.651Z,6.19
2023-02-16T21:24:57.781Z,6.15
2023-02-16T21:26:59.802Z,6.03
2023-02-16T21:29:01.976Z,6.08
2023-02-16T21:31:06.070Z,6.03
2023-02-16T21:33:08.256Z,6.00
2023-02-16T21:35:10.482Z,6.00
2023-02-16T21:37:12.996Z,6.03
2023-02-16T21:39:15.044Z,5.99
2023-02-16T21:41:25.762Z,5.96
2023-02-16T21:43:27.987Z,5.91
2023-02-16T21:45:30.292Z,5.94
2023-02-16T21:47:51.185Z,5.97
2023-02-16T21:49:53.292Z,5.94
2023-02-16T21:51:55.555Z,5.95
2023-02-16T21:53:58.432Z,5.93
2023-02-16T21:56:19.273Z,5.80
2023-02-16T21:58:21.612Z,5.73
2023-02-16T22:00:23.702Z,5.76
2023-02-16T22:02:26.814Z,5.79
2023-02-16T22:04:28.917Z,5.69
2023-02-16T22:06:34.532Z,5.66
2023-02-16T22:08:39.282Z,5.70
2023-02-16T22:10:41.309Z,5.60
2023-02-16T22:12:43.484Z,5.65
2023-02-16T22:14:45.487Z,5.65
2023-02-16T22:16:48.767Z,5.64
2023-02-16T22:18:56.623Z,5.55
2023-02-16T22:21:03.591Z,5.58
2023-02-16T22:23:06.626Z,5.57
2023-02-16T22:25:08.712Z,5.54
2023-02-16T22:27:11.098Z,5.44
2023-02-16T22:29:13.860Z,5.42
2023-02-16T22:31:16.326Z,5.42
2023-02-16T22:33:18.504Z,5.44
2023-02-16T22:35:20.502Z,5.48
2023-02-16T22:37:23.079Z,5.48
2023-02-16T22:39:25.170Z,5.52
2023-02-16T22:41:27.348Z,5.49
2023-02-16T22:43:30.700Z,5.48
2023-02-16T22:45:34.628Z,5.38
2023-02-16T22:47:37.099Z,5.28
2023-02-16T22:49:39.057Z,5.24
2023-02-16T22:51:41.083Z,5.23
2023-02-16T22:53:46.267Z,5.15
2023-02-16T22:55:48.365Z,5.09
2023-02-16T22:57:50.443Z,5.10
2023-02-16T22:59:53.119Z,5.10
2023-02-16T23:01:55.415Z,5.15
2023-02-16T23:03:59.594Z,5.11
2023-02-16T23:06:01.757Z,5.00
2023-02-16T23:08:04.039Z,4.98
2023-02-16T23:10:06.817Z,4.97
2023-02-16T23:12:09.069Z,4.84
2023-02-16T23:14:16.605Z,4.81
2023-02-16T23:16:21.858Z,4.81
2023-02-16T23:18:25.124Z,4.85
2023-02-16T23:20:30.173Z,4.80
2023-02-16T23:22:32.375Z,4.75
2023-02-16T23:24:34.676Z,4.73
2023-02-16T23:26:36.804Z,4.66
2023-02-16T23:28:41.365Z,4.66
2023-02-16T23:30:45.854Z,4.62
2023-02-16T23:32:47.992Z,4.61
2023-02-16T23:34:49.968Z,4.55
2023-02-16T23:36:52.153Z,4.55
2023-02-16T23:38:56.901Z,4.55
2023-02-16T23:41:01.259Z,4.47
2023-02-16T23:43:03.936Z,4.49
2023-02-16T23:45:06.601Z,4.54
2023-02-16T23:47:09.048Z,4.56
2023-02-16T23:49:11.603Z,4.54
2023-02-16T23:51:14.194Z,4.59
2023-02-16T23:53:17.503Z,4.59
2023-02-16T23:55:19.737Z,4.58
2023-02-16T23:57:22.188Z,4.52
2023-02-16T23:59:24.981Z,4.51
